EZY742 EDDF-EHAM
Flight info
| Callsign | EZY742 |
|---|---|
| Flight time | 0h 51m |
| Altitude | 24000 |
| Route | MARUN8M/25C MARUN Y152 ARPEG Z850 ABILU DCT NORKU |
| Aircraft | A20N/M-SDE2E3FGHIRWXY/LB1 |
Departure
| Time | 2026-05-05 18:47 |
|---|---|
| Airport | Frankfurt Main Airport (EDDF) |
Arrival
| Time | 2026-05-05 19:39 |
|---|---|
| Airport | Amsterdam Airport Schiphol (EHAM) |
| Time | Latitude | Longitude | Altitude | Speed | Heading |
|---|---|---|---|---|---|
| 2026-05-05 18:12 | 50.04847 | 8.57516 | 366 ft | 0 kts | 203° |
| 2026-05-05 18:30 | 50.04857 | 8.57523 | 360 ft | 3 kts | 203° |
| 2026-05-05 18:30 | 50.04872 | 8.57538 | 364 ft | 3 kts | 214° |
| 2026-05-05 18:30 | 50.04888 | 8.57552 | 363 ft | 3 kts | 207° |
| 2026-05-05 18:31 | 50.04905 | 8.57559 | 359 ft | 3 kts | 186° |
| 2026-05-05 18:31 | 50.04923 | 8.57558 | 362 ft | 2 kts | 138° |
| 2026-05-05 18:31 | 50.04927 | 8.57551 | 360 ft | 0 kts | 110° |
| 2026-05-05 18:34 | 50.04921 | 8.57577 | 361 ft | 3 kts | 112° |
| 2026-05-05 18:35 | 50.04908 | 8.57623 | 360 ft | 5 kts | 113° |
| 2026-05-05 18:35 | 50.04892 | 8.57681 | 362 ft | 9 kts | 113° |
| 2026-05-05 18:35 | 50.04858 | 8.57804 | 363 ft | 15 kts | 114° |
| 2026-05-05 18:35 | 50.04839 | 8.57862 | 363 ft | 4 kts | 121° |
| 2026-05-05 18:36 | 50.04818 | 8.57893 | 366 ft | 3 kts | 146° |
| 2026-05-05 18:36 | 50.04796 | 8.57909 | 359 ft | 4 kts | 156° |
| 2026-05-05 18:36 | 50.04770 | 8.57924 | 362 ft | 5 kts | 160° |
| 2026-05-05 18:36 | 50.04721 | 8.57953 | 363 ft | 9 kts | 159° |
| 2026-05-05 18:37 | 50.04664 | 8.57986 | 363 ft | 9 kts | 159° |
| 2026-05-05 18:37 | 50.04647 | 8.57996 | 360 ft | 0 kts | 159° |
| 2026-05-05 18:37 | 50.04642 | 8.57999 | 361 ft | 2 kts | 159° |
| 2026-05-05 18:37 | 50.04610 | 8.58018 | 361 ft | 9 kts | 159° |
| 2026-05-05 18:38 | 50.04568 | 8.58063 | 359 ft | 8 kts | 115° |
| 2026-05-05 18:38 | 50.04576 | 8.58154 | 365 ft | 12 kts | 69° |
| 2026-05-05 18:38 | 50.04607 | 8.58284 | 362 ft | 14 kts | 70° |
| 2026-05-05 18:38 | 50.04639 | 8.58423 | 361 ft | 10 kts | 70° |
| 2026-05-05 18:39 | 50.04648 | 8.58460 | 362 ft | 6 kts | 68° |
| 2026-05-05 18:39 | 50.04659 | 8.58518 | 365 ft | 3 kts | 91° |
| 2026-05-05 18:39 | 50.04646 | 8.58555 | 366 ft | 4 kts | 141° |
| 2026-05-05 18:39 | 50.04623 | 8.58572 | 360 ft | 4 kts | 157° |
| 2026-05-05 18:40 | 50.04597 | 8.58587 | 363 ft | 1 kts | 159° |
| 2026-05-05 18:43 | 50.04573 | 8.58602 | 365 ft | 3 kts | 159° |
| 2026-05-05 18:43 | 50.04530 | 8.58623 | 365 ft | 9 kts | 172° |
| 2026-05-05 18:43 | 50.04480 | 8.58564 | 364 ft | 8 kts | 248° |
| 2026-05-05 18:44 | 50.04479 | 8.58558 | 369 ft | 0 kts | 248° |
| 2026-05-05 18:47 | 50.04439 | 8.58393 | 367 ft | 51 kts | 249° |
| 2026-05-05 18:47 | 50.04218 | 8.57473 | 363 ft | 131 kts | 249° |
| 2026-05-05 18:47 | 50.03843 | 8.55900 | 650 ft | 170 kts | 249° |
| 2026-05-05 18:47 | 50.03427 | 8.54007 | 1074 ft | 200 kts | 250° |
| 2026-05-05 18:48 | 50.02916 | 8.51896 | 1721 ft | 216 kts | 247° |
| 2026-05-05 18:48 | 50.02133 | 8.49971 | 2218 ft | 205 kts | 225° |
| 2026-05-05 18:48 | 50.00884 | 8.48873 | 2430 ft | 214 kts | 200° |
| 2026-05-05 18:48 | 49.99427 | 8.48246 | 2648 ft | 219 kts | 195° |
| 2026-05-05 18:49 | 49.97940 | 8.47709 | 2874 ft | 219 kts | 195° |
| 2026-05-05 18:49 | 49.96458 | 8.47155 | 3116 ft | 219 kts | 197° |
| 2026-05-05 18:49 | 49.94961 | 8.46516 | 3364 ft | 232 kts | 198° |
| 2026-05-05 18:49 | 49.93399 | 8.45755 | 4105 ft | 239 kts | 204° |
| 2026-05-05 18:50 | 49.92021 | 8.44381 | 5240 ft | 234 kts | 226° |
| 2026-05-05 18:50 | 49.91181 | 8.42247 | 6196 ft | 235 kts | 253° |
| 2026-05-05 18:50 | 49.91072 | 8.39704 | 7028 ft | 241 kts | 276° |
| 2026-05-05 18:50 | 49.91660 | 8.37250 | 7848 ft | 249 kts | 301° |
| 2026-05-05 18:51 | 49.92963 | 8.35383 | 8536 ft | 267 kts | 327° |
| 2026-05-05 18:51 | 49.94694 | 8.34111 | 9173 ft | 282 kts | 334° |
| 2026-05-05 18:51 | 49.96538 | 8.32963 | 9958 ft | 288 kts | 335° |
| 2026-05-05 18:51 | 49.98455 | 8.31768 | 10414 ft | 307 kts | 334° |
| 2026-05-05 18:52 | 50.00499 | 8.30462 | 10752 ft | 329 kts | 334° |
| 2026-05-05 18:52 | 50.02702 | 8.29139 | 11083 ft | 351 kts | 340° |
| 2026-05-05 18:52 | 50.05191 | 8.28543 | 11404 ft | 375 kts | 358° |
| 2026-05-05 18:52 | 50.07827 | 8.29257 | 11811 ft | 394 kts | 14° |
| 2026-05-05 18:53 | 50.10470 | 8.30587 | 12418 ft | 403 kts | 17° |
| 2026-05-05 18:53 | 50.12230 | 8.31531 | 12699 ft | 406 kts | 17° |
| 2026-05-05 18:53 | 50.14908 | 8.32973 | 12846 ft | 407 kts | 18° |
| 2026-05-05 18:53 | 50.17590 | 8.34409 | 12848 ft | 408 kts | 18° |
| 2026-05-05 18:54 | 50.20279 | 8.35838 | 12850 ft | 409 kts | 17° |
| 2026-05-05 18:54 | 50.23872 | 8.37737 | 13360 ft | 414 kts | 17° |
| 2026-05-05 18:54 | 50.26603 | 8.39179 | 14114 ft | 416 kts | 17° |
| 2026-05-05 18:54 | 50.28457 | 8.40160 | 14560 ft | 418 kts | 18° |
| 2026-05-05 18:55 | 50.31219 | 8.41648 | 15205 ft | 422 kts | 18° |
| 2026-05-05 18:55 | 50.33999 | 8.43162 | 15842 ft | 426 kts | 19° |
| 2026-05-05 18:55 | 50.36807 | 8.44695 | 16522 ft | 429 kts | 20° |
| 2026-05-05 18:55 | 50.39636 | 8.46242 | 17172 ft | 432 kts | 20° |
| 2026-05-05 18:56 | 50.42488 | 8.47802 | 17800 ft | 436 kts | 20° |
| 2026-05-05 18:56 | 50.45365 | 8.49379 | 18367 ft | 440 kts | 20° |
| 2026-05-05 18:56 | 50.48286 | 8.50917 | 18902 ft | 444 kts | 18° |
| 2026-05-05 18:56 | 50.51244 | 8.52350 | 19482 ft | 446 kts | 18° |
| 2026-05-05 18:57 | 50.54265 | 8.53572 | 20034 ft | 450 kts | 11° |
| 2026-05-05 18:57 | 50.57399 | 8.53915 | 20547 ft | 455 kts | 358° |
| 2026-05-05 18:57 | 50.60554 | 8.53229 | 21031 ft | 460 kts | 348° |
| 2026-05-05 18:57 | 50.63666 | 8.51945 | 21547 ft | 464 kts | 343° |
| 2026-05-05 18:58 | 50.66741 | 8.50328 | 22050 ft | 467 kts | 340° |
| 2026-05-05 18:58 | 50.69766 | 8.48581 | 22542 ft | 471 kts | 340° |
| 2026-05-05 18:58 | 50.72847 | 8.46762 | 23043 ft | 474 kts | 339° |
| 2026-05-05 18:58 | 50.75949 | 8.44947 | 23496 ft | 477 kts | 340° |
| 2026-05-05 18:59 | 50.79090 | 8.43146 | 23758 ft | 479 kts | 340° |
| 2026-05-05 18:59 | 50.82230 | 8.41378 | 23808 ft | 479 kts | 341° |
| 2026-05-05 18:59 | 50.85381 | 8.39627 | 23810 ft | 479 kts | 341° |
| 2026-05-05 18:59 | 50.88537 | 8.37886 | 23814 ft | 480 kts | 341° |
| 2026-05-05 19:00 | 50.91692 | 8.36149 | 23810 ft | 480 kts | 341° |
| 2026-05-05 19:00 | 50.94840 | 8.34414 | 23815 ft | 480 kts | 341° |
| 2026-05-05 19:00 | 50.97996 | 8.32672 | 23819 ft | 480 kts | 341° |
| 2026-05-05 19:00 | 51.01110 | 8.30755 | 23818 ft | 480 kts | 335° |
| 2026-05-05 19:01 | 51.04099 | 8.28390 | 23822 ft | 480 kts | 333° |
| 2026-05-05 19:01 | 51.07053 | 8.25903 | 23822 ft | 481 kts | 331° |
| 2026-05-05 19:01 | 51.09984 | 8.23334 | 23824 ft | 481 kts | 330° |
| 2026-05-05 19:01 | 51.12866 | 8.20759 | 23824 ft | 481 kts | 330° |
| 2026-05-05 19:02 | 51.15795 | 8.18123 | 23826 ft | 481 kts | 330° |
| 2026-05-05 19:02 | 51.18672 | 8.15529 | 23823 ft | 481 kts | 330° |
| 2026-05-05 19:02 | 51.21626 | 8.12869 | 23828 ft | 481 kts | 330° |
| 2026-05-05 19:02 | 51.24542 | 8.10247 | 23834 ft | 481 kts | 330° |
| 2026-05-05 19:03 | 51.27462 | 8.07623 | 23830 ft | 482 kts | 330° |
| 2026-05-05 19:03 | 51.30384 | 8.04998 | 23827 ft | 482 kts | 329° |
| 2026-05-05 19:03 | 51.33306 | 8.02370 | 23828 ft | 482 kts | 329° |
| 2026-05-05 19:03 | 51.36199 | 7.99765 | 23830 ft | 482 kts | 329° |
| 2026-05-05 19:04 | 51.39121 | 7.97126 | 23831 ft | 482 kts | 329° |
| 2026-05-05 19:04 | 51.41925 | 7.94181 | 23830 ft | 481 kts | 324° |
| 2026-05-05 19:04 | 51.44662 | 7.91092 | 23830 ft | 481 kts | 323° |
| 2026-05-05 19:04 | 51.47372 | 7.87932 | 23830 ft | 481 kts | 322° |
| 2026-05-05 19:05 | 51.50061 | 7.84736 | 23830 ft | 481 kts | 322° |
| 2026-05-05 19:05 | 51.52741 | 7.81522 | 23829 ft | 481 kts | 322° |
| 2026-05-05 19:05 | 51.55422 | 7.78297 | 23830 ft | 481 kts | 321° |
| 2026-05-05 19:05 | 51.58096 | 7.75079 | 23830 ft | 480 kts | 321° |
| 2026-05-05 19:06 | 51.60772 | 7.71861 | 23837 ft | 479 kts | 322° |
| 2026-05-05 19:06 | 51.63438 | 7.68655 | 23830 ft | 478 kts | 322° |
| 2026-05-05 19:06 | 51.66097 | 7.65455 | 23831 ft | 478 kts | 322° |
| 2026-05-05 19:06 | 51.68765 | 7.62240 | 23832 ft | 478 kts | 322° |
| 2026-05-05 19:07 | 51.71421 | 7.59036 | 23833 ft | 477 kts | 322° |
| 2026-05-05 19:07 | 51.74083 | 7.55822 | 23835 ft | 477 kts | 321° |
| 2026-05-05 19:07 | 51.76743 | 7.52603 | 23838 ft | 477 kts | 321° |
| 2026-05-05 19:07 | 51.79400 | 7.49384 | 23846 ft | 477 kts | 321° |
| 2026-05-05 19:08 | 51.82053 | 7.46167 | 23845 ft | 477 kts | 321° |
| 2026-05-05 19:08 | 51.84709 | 7.42939 | 23845 ft | 476 kts | 321° |
| 2026-05-05 19:08 | 51.87353 | 7.39722 | 23854 ft | 476 kts | 321° |
| 2026-05-05 19:08 | 51.89962 | 7.36541 | 23853 ft | 475 kts | 321° |
| 2026-05-05 19:09 | 51.92639 | 7.33275 | 23863 ft | 475 kts | 321° |
| 2026-05-05 19:09 | 51.95244 | 7.30090 | 23854 ft | 477 kts | 321° |
| 2026-05-05 19:09 | 51.97898 | 7.26841 | 23854 ft | 478 kts | 321° |
| 2026-05-05 19:09 | 52.00550 | 7.23589 | 23858 ft | 478 kts | 321° |
| 2026-05-05 19:10 | 52.03204 | 7.20330 | 23858 ft | 478 kts | 321° |
| 2026-05-05 19:10 | 52.05859 | 7.17065 | 23859 ft | 478 kts | 321° |
| 2026-05-05 19:10 | 52.08507 | 7.13805 | 23560 ft | 473 kts | 320° |
| 2026-05-05 19:10 | 52.11101 | 7.10608 | 23202 ft | 462 kts | 320° |
| 2026-05-05 19:11 | 52.13625 | 7.07492 | 22937 ft | 449 kts | 320° |
| 2026-05-05 19:11 | 52.16079 | 7.04457 | 22701 ft | 436 kts | 320° |
| 2026-05-05 19:11 | 52.18463 | 7.01503 | 22452 ft | 424 kts | 320° |
| 2026-05-05 19:11 | 52.20747 | 6.98572 | 22228 ft | 412 kts | 316° |
| 2026-05-05 19:12 | 52.22723 | 6.95297 | 21968 ft | 400 kts | 309° |
| 2026-05-05 19:12 | 52.24508 | 6.91844 | 21481 ft | 396 kts | 307° |
| 2026-05-05 19:12 | 52.26242 | 6.88366 | 20930 ft | 394 kts | 307° |
| 2026-05-05 19:12 | 52.27972 | 6.84882 | 20312 ft | 395 kts | 307° |
| 2026-05-05 19:13 | 52.29700 | 6.81405 | 19827 ft | 391 kts | 307° |
| 2026-05-05 19:13 | 52.31397 | 6.77993 | 19562 ft | 381 kts | 307° |
| 2026-05-05 19:13 | 52.33050 | 6.74670 | 19324 ft | 372 kts | 307° |
| 2026-05-05 19:13 | 52.34640 | 6.71471 | 19096 ft | 362 kts | 307° |
| 2026-05-05 19:14 | 52.36207 | 6.68313 | 18833 ft | 355 kts | 307° |
| 2026-05-05 19:14 | 52.37767 | 6.65163 | 18355 ft | 355 kts | 308° |
| 2026-05-05 19:14 | 52.39320 | 6.62023 | 17872 ft | 354 kts | 308° |
| 2026-05-05 19:14 | 52.40866 | 6.58897 | 17386 ft | 352 kts | 308° |
| 2026-05-05 19:15 | 52.42404 | 6.55784 | 16922 ft | 350 kts | 308° |
| 2026-05-05 19:15 | 52.43931 | 6.52688 | 16448 ft | 348 kts | 308° |
| 2026-05-05 19:15 | 52.45346 | 6.49485 | 15994 ft | 346 kts | 301° |
| 2026-05-05 19:15 | 52.46412 | 6.45972 | 15549 ft | 343 kts | 290° |
| 2026-05-05 19:16 | 52.47038 | 6.42217 | 15090 ft | 341 kts | 279° |
| 2026-05-05 19:16 | 52.47322 | 6.38361 | 14651 ft | 339 kts | 275° |
| 2026-05-05 19:16 | 52.47514 | 6.34521 | 14247 ft | 336 kts | 275° |
| 2026-05-05 19:16 | 52.47692 | 6.30738 | 13901 ft | 331 kts | 275° |
| 2026-05-05 19:17 | 52.47869 | 6.26981 | 13425 ft | 330 kts | 275° |
| 2026-05-05 19:17 | 52.48049 | 6.23237 | 12924 ft | 329 kts | 275° |
| 2026-05-05 19:17 | 52.48230 | 6.19492 | 12426 ft | 328 kts | 275° |
| 2026-05-05 19:17 | 52.48409 | 6.15779 | 11949 ft | 327 kts | 275° |
| 2026-05-05 19:18 | 52.48588 | 6.12067 | 11465 ft | 325 kts | 274° |
| 2026-05-05 19:18 | 52.48764 | 6.08383 | 10997 ft | 324 kts | 274° |
| 2026-05-05 19:18 | 52.48938 | 6.04746 | 10532 ft | 323 kts | 274° |
| 2026-05-05 19:18 | 52.49112 | 6.01077 | 10072 ft | 321 kts | 274° |
| 2026-05-05 19:19 | 52.49284 | 5.97437 | 9609 ft | 319 kts | 274° |
| 2026-05-05 19:19 | 52.49453 | 5.93824 | 9106 ft | 317 kts | 274° |
| 2026-05-05 19:19 | 52.49620 | 5.90241 | 8613 ft | 314 kts | 275° |
| 2026-05-05 19:19 | 52.49785 | 5.86676 | 8123 ft | 312 kts | 275° |
| 2026-05-05 19:20 | 52.49947 | 5.83147 | 7635 ft | 309 kts | 275° |
| 2026-05-05 19:20 | 52.50108 | 5.79638 | 7177 ft | 307 kts | 275° |
| 2026-05-05 19:20 | 52.50266 | 5.76170 | 6782 ft | 303 kts | 275° |
| 2026-05-05 19:20 | 52.50420 | 5.72744 | 6390 ft | 299 kts | 275° |
| 2026-05-05 19:21 | 52.50572 | 5.69361 | 5985 ft | 295 kts | 275° |
| 2026-05-05 19:21 | 52.50721 | 5.66015 | 5554 ft | 292 kts | 275° |
| 2026-05-05 19:21 | 52.50868 | 5.62698 | 5126 ft | 290 kts | 276° |
| 2026-05-05 19:21 | 52.50989 | 5.59404 | 4722 ft | 289 kts | 273° |
| 2026-05-05 19:22 | 52.50687 | 5.56177 | 4448 ft | 284 kts | 253° |
| 2026-05-05 19:22 | 52.49931 | 5.53252 | 4400 ft | 272 kts | 245° |
| 2026-05-05 19:22 | 52.49039 | 5.50622 | 4505 ft | 258 kts | 240° |
| 2026-05-05 19:22 | 52.48096 | 5.48139 | 4507 ft | 257 kts | 239° |
| 2026-05-05 19:23 | 52.47124 | 5.45671 | 4490 ft | 258 kts | 238° |
| 2026-05-05 19:23 | 52.46161 | 5.43222 | 4488 ft | 253 kts | 239° |
| 2026-05-05 19:23 | 52.45227 | 5.40805 | 4495 ft | 249 kts | 239° |
| 2026-05-05 19:23 | 52.44324 | 5.38426 | 4490 ft | 249 kts | 240° |
| 2026-05-05 19:24 | 52.43417 | 5.36001 | 4494 ft | 250 kts | 240° |
| 2026-05-05 19:24 | 52.42516 | 5.33571 | 4490 ft | 249 kts | 240° |
| 2026-05-05 19:24 | 52.41625 | 5.31160 | 4512 ft | 246 kts | 240° |
| 2026-05-05 19:24 | 52.40734 | 5.28747 | 4492 ft | 247 kts | 240° |
| 2026-05-05 19:25 | 52.39842 | 5.26335 | 4487 ft | 249 kts | 240° |
| 2026-05-05 19:25 | 52.38944 | 5.23908 | 4492 ft | 249 kts | 241° |
| 2026-05-05 19:25 | 52.38042 | 5.21475 | 4487 ft | 251 kts | 240° |
| 2026-05-05 19:25 | 52.37137 | 5.19038 | 4495 ft | 251 kts | 240° |
| 2026-05-05 19:26 | 52.36234 | 5.16614 | 4485 ft | 250 kts | 240° |
| 2026-05-05 19:26 | 52.35332 | 5.14196 | 4487 ft | 249 kts | 240° |
| 2026-05-05 19:26 | 52.34427 | 5.11788 | 4492 ft | 247 kts | 239° |
| 2026-05-05 19:26 | 52.33469 | 5.09430 | 4499 ft | 250 kts | 237° |
| 2026-05-05 19:27 | 52.32498 | 5.07079 | 4487 ft | 250 kts | 238° |
| 2026-05-05 19:27 | 52.31514 | 5.04721 | 4494 ft | 252 kts | 237° |
| 2026-05-05 19:27 | 52.30534 | 5.02360 | 4488 ft | 249 kts | 237° |
| 2026-05-05 19:27 | 52.29560 | 5.00008 | 4492 ft | 250 kts | 237° |
| 2026-05-05 19:28 | 52.28597 | 4.97668 | 4487 ft | 248 kts | 237° |
| 2026-05-05 19:28 | 52.27634 | 4.95331 | 4484 ft | 249 kts | 237° |
| 2026-05-05 19:28 | 52.26662 | 4.92992 | 4491 ft | 249 kts | 238° |
| 2026-05-05 19:28 | 52.25678 | 4.90640 | 4492 ft | 252 kts | 237° |
| 2026-05-05 19:29 | 52.24682 | 4.88280 | 4500 ft | 253 kts | 237° |
| 2026-05-05 19:29 | 52.23702 | 4.85950 | 4491 ft | 252 kts | 238° |
| 2026-05-05 19:29 | 52.22707 | 4.83602 | 4496 ft | 252 kts | 237° |
| 2026-05-05 19:29 | 52.21705 | 4.81218 | 4497 ft | 251 kts | 237° |
| 2026-05-05 19:30 | 52.20727 | 4.78896 | 4495 ft | 252 kts | 237° |
| 2026-05-05 19:30 | 52.19725 | 4.76512 | 4495 ft | 253 kts | 237° |
| 2026-05-05 19:30 | 52.18741 | 4.74178 | 4494 ft | 252 kts | 237° |
| 2026-05-05 19:30 | 52.17748 | 4.71797 | 4168 ft | 249 kts | 237° |
| 2026-05-05 19:31 | 52.16794 | 4.69482 | 3738 ft | 248 kts | 237° |
| 2026-05-05 19:31 | 52.15841 | 4.67149 | 3302 ft | 246 kts | 237° |
| 2026-05-05 19:31 | 52.14899 | 4.64822 | 2863 ft | 246 kts | 237° |
| 2026-05-05 19:31 | 52.13954 | 4.62492 | 2409 ft | 247 kts | 237° |
| 2026-05-05 19:32 | 52.13015 | 4.60155 | 2053 ft | 245 kts | 242° |
| 2026-05-05 19:32 | 52.12551 | 4.57551 | 1980 ft | 238 kts | 267° |
| 2026-05-05 19:32 | 52.12449 | 4.54885 | 1962 ft | 232 kts | 272° |
| 2026-05-05 19:32 | 52.12651 | 4.52475 | 1952 ft | 201 kts | 301° |
| 2026-05-05 19:33 | 52.13474 | 4.50858 | 1980 ft | 179 kts | 327° |
| 2026-05-05 19:33 | 52.14474 | 4.49669 | 1983 ft | 177 kts | 332° |
| 2026-05-05 19:33 | 52.15495 | 4.48550 | 1983 ft | 177 kts | 332° |
| 2026-05-05 19:33 | 52.16569 | 4.47649 | 1970 ft | 170 kts | 355° |
| 2026-05-05 19:34 | 52.17695 | 4.47924 | 1987 ft | 164 kts | 25° |
| 2026-05-05 19:34 | 52.18696 | 4.48809 | 1985 ft | 164 kts | 34° |
| 2026-05-05 19:34 | 52.19548 | 4.50052 | 1983 ft | 166 kts | 47° |
| 2026-05-05 19:35 | 52.20855 | 4.53127 | 1993 ft | 164 kts | 54° |
| 2026-05-05 19:35 | 52.21464 | 4.54696 | 1978 ft | 165 kts | 55° |
| 2026-05-05 19:35 | 52.22081 | 4.56278 | 1977 ft | 165 kts | 55° |
| 2026-05-05 19:35 | 52.22700 | 4.57857 | 1979 ft | 165 kts | 55° |
| 2026-05-05 19:36 | 52.23318 | 4.59431 | 1984 ft | 164 kts | 55° |
| 2026-05-05 19:36 | 52.23933 | 4.61004 | 1982 ft | 164 kts | 55° |
| 2026-05-05 19:36 | 52.24547 | 4.62574 | 1979 ft | 164 kts | 55° |
| 2026-05-05 19:36 | 52.25157 | 4.64141 | 1975 ft | 161 kts | 55° |
| 2026-05-05 19:37 | 52.25553 | 4.65153 | 1907 ft | 162 kts | 55° |
| 2026-05-05 19:37 | 52.26179 | 4.66685 | 1569 ft | 158 kts | 54° |
| 2026-05-05 19:37 | 52.26776 | 4.68174 | 1023 ft | 158 kts | 54° |
| 2026-05-05 19:37 | 52.27351 | 4.69695 | 577 ft | 153 kts | 57° |
| 2026-05-05 19:38 | 52.27865 | 4.71101 | 397 ft | 134 kts | 52° |
| 2026-05-05 19:38 | 52.28344 | 4.72299 | 229 ft | 119 kts | 52° |
| 2026-05-05 19:38 | 52.28785 | 4.73423 | 90 ft | 118 kts | 54° |
| 2026-05-05 19:38 | 52.29208 | 4.74486 | 3 ft | 98 kts | 56° |
| 2026-05-05 19:39 | 52.29440 | 4.75092 | -1 ft | 45 kts | 58° |
| 2026-05-05 19:39 | 52.29589 | 4.75356 | 1 ft | 24 kts | 3° |
| 2026-05-05 19:39 | 52.29666 | 4.75314 | 1 ft | 7 kts | 330° |
| 2026-05-05 19:39 | 52.29716 | 4.75278 | 1 ft | 7 kts | 359° |
| 2026-05-05 19:40 | 52.29749 | 4.75300 | 1 ft | 2 kts | 49° |
| 2026-05-05 19:40 | 52.29766 | 4.75362 | 1 ft | 10 kts | 69° |
| 2026-05-05 19:40 | 52.29806 | 4.75503 | 1 ft | 17 kts | 59° |
| 2026-05-05 19:40 | 52.29876 | 4.75683 | 1 ft | 21 kts | 57° |
| 2026-05-05 19:41 | 52.29961 | 4.75896 | 1 ft | 24 kts | 56° |
| 2026-05-05 19:41 | 52.30049 | 4.76136 | 0 ft | 26 kts | 58° |
| 2026-05-05 19:41 | 52.30144 | 4.76378 | 1 ft | 26 kts | 56° |
| 2026-05-05 19:41 | 52.30237 | 4.76627 | 1 ft | 26 kts | 58° |
| 2026-05-05 19:42 | 52.30319 | 4.76839 | 0 ft | 21 kts | 57° |
| 2026-05-05 19:42 | 52.30391 | 4.77025 | 0 ft | 19 kts | 57° |
| 2026-05-05 19:42 | 52.30463 | 4.77215 | 0 ft | 21 kts | 59° |
| 2026-05-05 19:42 | 52.30541 | 4.77421 | 0 ft | 20 kts | 58° |
| 2026-05-05 19:43 | 52.30632 | 4.77577 | 1 ft | 17 kts | 18° |
| 2026-05-05 19:43 | 52.30755 | 4.77597 | 1 ft | 19 kts | 4° |
| 2026-05-05 19:43 | 52.30891 | 4.77610 | 1 ft | 21 kts | 2° |
| 2026-05-05 19:43 | 52.31040 | 4.77624 | 1 ft | 22 kts | 3° |
| 2026-05-05 19:44 | 52.31198 | 4.77639 | 1 ft | 24 kts | 4° |
| 2026-05-05 19:44 | 52.31367 | 4.77653 | 1 ft | 25 kts | 3° |
| 2026-05-05 19:44 | 52.31508 | 4.77567 | 1 ft | 21 kts | 316° |
| 2026-05-05 19:44 | 52.31575 | 4.77418 | 1 ft | 14 kts | 283° |
| 2026-05-05 19:45 | 52.31573 | 4.77258 | 0 ft | 15 kts | 267° |
| 2026-05-05 19:45 | 52.31569 | 4.77067 | 0 ft | 18 kts | 268° |
| 2026-05-05 19:45 | 52.31563 | 4.76849 | 0 ft | 21 kts | 267° |
| 2026-05-05 19:45 | 52.31553 | 4.76603 | 1 ft | 23 kts | 265° |
| 2026-05-05 19:46 | 52.31543 | 4.76333 | 1 ft | 25 kts | 266° |
| 2026-05-05 19:46 | 52.31535 | 4.76082 | 1 ft | 21 kts | 266° |
| 2026-05-05 19:46 | 52.31526 | 4.75825 | 1 ft | 24 kts | 267° |
| 2026-05-05 19:46 | 52.31518 | 4.75552 | 1 ft | 15 kts | 268° |
| 2026-05-05 19:47 | 52.31487 | 4.75445 | 1 ft | 10 kts | 197° |
| 2026-05-05 19:47 | 52.31417 | 4.75439 | 1 ft | 11 kts | 177° |
| 2026-05-05 19:47 | 52.31330 | 4.75446 | 1 ft | 14 kts | 176° |
| 2026-05-05 19:47 | 52.31222 | 4.75458 | 1 ft | 17 kts | 176° |
| 2026-05-05 19:48 | 52.31111 | 4.75458 | 1 ft | 11 kts | 176° |
| 2026-05-05 19:48 | 52.31060 | 4.75502 | 1 ft | 5 kts | 148° |
| 2026-05-05 19:48 | 52.31047 | 4.75515 | 1 ft | 0 kts | 148° |